sensor_id;sensor_type;location;lat;lon;timestamp;pressure;altitude;pressure_sealevel;temperature;humidity
40384;BME280;26097;42.366;23.818;2024-02-21T00:00:14;94666.00;;;3.73;100.00
40384;BME280;26097;42.366;23.818;2024-02-21T00:03:23;94655.81;;;3.70;100.00
40384;BME280;26097;42.366;23.818;2024-02-21T00:06:43;94660.28;;;3.66;100.00
40384;BME280;26097;42.366;23.818;2024-02-21T00:09:42;94650.88;;;3.65;100.00
40384;BME280;26097;42.366;23.818;2024-02-21T00:12:42;94653.50;;;3.64;100.00
40384;BME280;26097;42.366;23.818;2024-02-21T00:15:42;94644.13;;;3.61;100.00
40384;BME280;26097;42.366;23.818;2024-02-21T00:18:41;94645.94;;;3.59;100.00
40384;BME280;26097;42.366;23.818;2024-02-21T00:21:41;94646.91;;;3.56;100.00
40384;BME280;26097;42.366;23.818;2024-02-21T00:24:41;94644.50;;;3.52;100.00
40384;BME280;26097;42.366;23.818;2024-02-21T00:27:40;94644.69;;;3.47;100.00
40384;BME280;26097;42.366;23.818;2024-02-21T00:30:40;94640.59;;;3.41;100.00
40384;BME280;26097;42.366;23.818;2024-02-21T00:33:39;94631.47;;;3.33;100.00
40384;BME280;26097;42.366;23.818;2024-02-21T00:36:39;94631.72;;;3.26;100.00
40384;BME280;26097;42.366;23.818;2024-02-21T00:39:38;94623.28;;;3.23;100.00
40384;BME280;26097;42.366;23.818;2024-02-21T00:42:37;94625.31;;;3.14;100.00
40384;BME280;26097;42.366;23.818;2024-02-21T00:45:37;94617.63;;;3.13;100.00
40384;BME280;26097;42.366;23.818;2024-02-21T00:48:36;94633.91;;;3.15;100.00
40384;BME280;26097;42.366;23.818;2024-02-21T00:51:36;94621.84;;;3.16;100.00
40384;BME280;26097;42.366;23.818;2024-02-21T00:54:35;94614.97;;;3.16;100.00
40384;BME280;26097;42.366;23.818;2024-02-21T00:57:34;94610.63;;;3.17;100.00
40384;BME280;26097;42.366;23.818;2024-02-21T01:00:35;94612.31;;;3.18;100.00
40384;BME280;26097;42.366;23.818;2024-02-21T01:03:34;94620.00;;;3.19;100.00
40384;BME280;26097;42.366;23.818;2024-02-21T01:06:34;94623.41;;;3.20;100.00
40384;BME280;26097;42.366;23.818;2024-02-21T01:09:33;94620.66;;;3.24;100.00
40384;BME280;26097;42.366;23.818;2024-02-21T01:12:32;94613.69;;;3.26;100.00
40384;BME280;26097;42.366;23.818;2024-02-21T01:15:32;94621.31;;;3.29;100.00
40384;BME280;26097;42.366;23.818;2024-02-21T01:18:33;94611.06;;;3.28;100.00
40384;BME280;26097;42.366;23.818;2024-02-21T01:21:32;94615.38;;;3.27;100.00
40384;BME280;26097;42.366;23.818;2024-02-21T01:24:32;94611.91;;;3.28;100.00
40384;BME280;26097;42.366;23.818;2024-02-21T01:27:31;94603.25;;;3.29;100.00
40384;BME280;26097;42.366;23.818;2024-02-21T01:30:31;94609.16;;;3.33;100.00
40384;BME280;26097;42.366;23.818;2024-02-21T01:33:30;94608.25;;;3.34;100.00
40384;BME280;26097;42.366;23.818;2024-02-21T01:36:33;94597.97;;;3.33;100.00
40384;BME280;26097;42.366;23.818;2024-02-21T01:39:33;94608.19;;;3.36;100.00
40384;BME280;26097;42.366;23.818;2024-02-21T01:42:33;94614.78;;;3.43;100.00
40384;BME280;26097;42.366;23.818;2024-02-21T01:45:37;94609.63;;;3.43;100.00
40384;BME280;26097;42.366;23.818;2024-02-21T01:48:36;94605.25;;;3.45;100.00
40384;BME280;26097;42.366;23.818;2024-02-21T01:51:36;94606.91;;;3.46;100.00
40384;BME280;26097;42.366;23.818;2024-02-21T01:54:36;94602.91;;;3.39;100.00
40384;BME280;26097;42.366;23.818;2024-02-21T01:57:35;94606.28;;;3.41;100.00
40384;BME280;26097;42.366;23.818;2024-02-21T02:00:36;94595.84;;;3.44;100.00
40384;BME280;26097;42.366;23.818;2024-02-21T02:03:36;94599.91;;;3.50;100.00
40384;BME280;26097;42.366;23.818;2024-02-21T02:06:36;94593.72;;;3.54;100.00
40384;BME280;26097;42.366;23.818;2024-02-21T02:09:36;94595.34;;;3.56;100.00
40384;BME280;26097;42.366;23.818;2024-02-21T02:12:35;94596.91;;;3.61;100.00
40384;BME280;26097;42.366;23.818;2024-02-21T02:15:49;94595.88;;;3.65;100.00
40384;BME280;26097;42.366;23.818;2024-02-21T02:18:48;94596.91;;;3.61;100.00
40384;BME280;26097;42.366;23.818;2024-02-21T02:21:51;94592.56;;;3.61;100.00
40384;BME280;26097;42.366;23.818;2024-02-21T02:24:55;94603.59;;;3.65;100.00
40384;BME280;26097;42.366;23.818;2024-02-21T02:27:54;94590.06;;;3.60;100.00
40384;BME280;26097;42.366;23.818;2024-02-21T02:30:53;94590.97;;;3.59;100.00
40384;BME280;26097;42.366;23.818;2024-02-21T02:33:53;94589.34;;;3.56;100.00
40384;BME280;26097;42.366;23.818;2024-02-21T02:36:53;94598.03;;;3.53;100.00
40384;BME280;26097;42.366;23.818;2024-02-21T02:39:53;94593.91;;;3.49;100.00
40384;BME280;26097;42.366;23.818;2024-02-21T02:42:53;94603.31;;;3.50;100.00
40384;BME280;26097;42.366;23.818;2024-02-21T02:45:54;94595.44;;;3.53;100.00
40384;BME280;26097;42.366;23.818;2024-02-21T02:48:54;94598.94;;;3.52;100.00
40384;BME280;26097;42.366;23.818;2024-02-21T02:51:54;94599.84;;;3.51;100.00
40384;BME280;26097;42.366;23.818;2024-02-21T02:54:53;94590.38;;;3.52;100.00
40384;BME280;26097;42.366;23.818;2024-02-21T02:57:55;94590.44;;;3.50;100.00
40384;BME280;26097;42.366;23.818;2024-02-21T03:00:55;94598.88;;;3.54;100.00
40384;BME280;26097;42.366;23.818;2024-02-21T03:03:54;94592.56;;;3.61;100.00
40384;BME280;26097;42.366;23.818;2024-02-21T03:06:53;94594.19;;;3.64;100.00
40384;BME280;26097;42.366;23.818;2024-02-21T03:09:53;94603.56;;;3.66;100.00
40384;BME280;26097;42.366;23.818;2024-02-21T03:12:53;94602.53;;;3.70;100.00
40384;BME280;26097;42.366;23.818;2024-02-21T03:15:53;94605.03;;;3.72;100.00
40384;BME280;26097;42.366;23.818;2024-02-21T03:18:52;94601.53;;;3.73;100.00
40384;BME280;26097;42.366;23.818;2024-02-21T03:21:52;94605.16;;;3.69;100.00
40384;BME280;26097;42.366;23.818;2024-02-21T03:24:51;94609.41;;;3.70;100.00
40384;BME280;26097;42.366;23.818;2024-02-21T03:27:51;94612.84;;;3.70;100.00
40384;BME280;26097;42.366;23.818;2024-02-21T03:30:50;94612.72;;;3.74;100.00
40384;BME280;26097;42.366;23.818;2024-02-21T03:33:50;94610.19;;;3.72;100.00
40384;BME280;26097;42.366;23.818;2024-02-21T03:36:49;94600.78;;;3.71;100.00
40384;BME280;26097;42.366;23.818;2024-02-21T03:39:48;94605.16;;;3.69;100.00
40384;BME280;26097;42.366;23.818;2024-02-21T03:42:48;94608.75;;;3.65;100.00
40384;BME280;26097;42.366;23.818;2024-02-21T03:45:47;94605.38;;;3.64;100.00
40384;BME280;26097;42.366;23.818;2024-02-21T03:48:47;94608.88;;;3.62;100.00
40384;BME280;26097;42.366;23.818;2024-02-21T03:51:46;94598.56;;;3.62;100.00
40384;BME280;26097;42.366;23.818;2024-02-21T03:54:45;94602.78;;;3.64;100.00
40384;BME280;26097;42.366;23.818;2024-02-21T03:57:45;94597.63;;;3.64;100.00
40384;BME280;26097;42.366;23.818;2024-02-21T04:00:44;94603.72;;;3.62;100.00
40384;BME280;26097;42.366;23.818;2024-02-21T04:03:44;94600.25;;;3.63;100.00
40384;BME280;26097;42.366;23.818;2024-02-21T04:06:50;94610.69;;;3.60;100.00
40384;BME280;26097;42.366;23.818;2024-02-21T04:09:49;94605.53;;;3.60;100.00
40384;BME280;26097;42.366;23.818;2024-02-21T04:12:49;94604.00;;;3.55;100.00
40384;BME280;26097;42.366;23.818;2024-02-21T04:15:49;94611.81;;;3.52;100.00
40384;BME280;26097;42.366;23.818;2024-02-21T04:18:48;94610.16;;;3.51;100.00
40384;BME280;26097;42.366;23.818;2024-02-21T04:21:48;94615.31;;;3.51;100.00
40384;BME280;26097;42.366;23.818;2024-02-21T04:24:47;94614.41;;;3.52;100.00
40384;BME280;26097;42.366;23.818;2024-02-21T04:27:47;94610.16;;;3.51;100.00
40384;BME280;26097;42.366;23.818;2024-02-21T04:30:46;94614.47;;;3.51;100.00
40384;BME280;26097;42.366;23.818;2024-02-21T04:33:45;94616.19;;;3.50;100.00
40384;BME280;26097;42.366;23.818;2024-02-21T04:36:45;94615.25;;;3.53;100.00
40384;BME280;26097;42.366;23.818;2024-02-21T04:39:44;94616.06;;;3.53;100.00
40384;BME280;26097;42.366;23.818;2024-02-21T04:42:44;94611.16;;;3.47;100.00
40384;BME280;26097;42.366;23.818;2024-02-21T04:45:43;94619.81;;;3.46;100.00
40384;BME280;26097;42.366;23.818;2024-02-21T04:48:42;94622.50;;;3.43;100.00
40384;BME280;26097;42.366;23.818;2024-02-21T04:51:42;94619.31;;;3.36;100.00
40384;BME280;26097;42.366;23.818;2024-02-21T04:54:42;94615.25;;;3.31;100.00
40384;BME280;26097;42.366;23.818;2024-02-21T04:57:41;94618.97;;;3.23;100.00
40384;BME280;26097;42.366;23.818;2024-02-21T05:00:41;94618.25;;;3.20;100.00
40384;BME280;26097;42.366;23.818;2024-02-21T05:03:40;94615.13;;;3.11;100.00
40384;BME280;26097;42.366;23.818;2024-02-21T05:06:41;94622.91;;;3.10;100.00
40384;BME280;26097;42.366;23.818;2024-02-21T05:09:42;94620.34;;;3.10;100.00
40384;BME280;26097;42.366;23.818;2024-02-21T05:12:41;94627.34;;;3.06;100.00
40384;BME280;26097;42.366;23.818;2024-02-21T05:15:41;94629.84;;;3.08;100.00
40384;BME280;26097;42.366;23.818;2024-02-21T05:18:40;94635.00;;;3.08;100.00
40384;BME280;26097;42.366;23.818;2024-02-21T05:21:40;94633.41;;;3.05;100.00
40384;BME280;26097;42.366;23.818;2024-02-21T05:24:39;94630.75;;;3.07;100.00
40384;BME280;26097;42.366;23.818;2024-02-21T05:27:39;94634.88;;;3.11;100.00
40384;BME280;26097;42.366;23.818;2024-02-21T05:30:38;94632.88;;;3.19;100.00
40384;BME280;26097;42.366;23.818;2024-02-21T05:33:38;94626.34;;;3.33;100.00
40384;BME280;26097;42.366;23.818;2024-02-21T05:36:37;94631.41;;;3.36;100.00
40384;BME280;26097;42.366;23.818;2024-02-21T05:39:36;94627.66;;;3.43;100.00
40384;BME280;26097;42.366;23.818;2024-02-21T05:42:36;94629.88;;;3.52;100.00
40384;BME280;26097;42.366;23.818;2024-02-21T05:45:35;94640.78;;;3.59;100.00
40384;BME280;26097;42.366;23.818;2024-02-21T05:48:35;94635.31;;;3.67;100.00
40384;BME280;26097;42.366;23.818;2024-02-21T05:51:34;94640.47;;;3.67;100.00
40384;BME280;26097;42.366;23.818;2024-02-21T05:54:34;94641.13;;;3.72;100.00
40384;BME280;26097;42.366;23.818;2024-02-21T05:57:36;94641.78;;;3.77;100.00
40384;BME280;26097;42.366;23.818;2024-02-21T06:00:37;94645.91;;;3.81;100.00
40384;BME280;26097;42.366;23.818;2024-02-21T06:03:36;94649.69;;;3.95;100.00
40384;BME280;26097;42.366;23.818;2024-02-21T06:06:35;94645.16;;;4.00;100.00
40384;BME280;26097;42.366;23.818;2024-02-21T06:09:35;94645.63;;;4.10;100.00
40384;BME280;26097;42.366;23.818;2024-02-21T06:12:34;94648.59;;;4.21;100.00
40384;BME280;26097;42.366;23.818;2024-02-21T06:15:33;94652.41;;;4.33;100.00
40384;BME280;26097;42.366;23.818;2024-02-21T06:18:35;94657.16;;;4.42;100.00
40384;BME280;26097;42.366;23.818;2024-02-21T06:21:35;94662.19;;;4.46;100.00
40384;BME280;26097;42.366;23.818;2024-02-21T06:24:35;94663.34;;;4.59;100.00
40384;BME280;26097;42.366;23.818;2024-02-21T06:27:35;94676.75;;;4.67;100.00
40384;BME280;26097;42.366;23.818;2024-02-21T06:30:35;94680.00;;;4.72;100.00
40384;BME280;26097;42.366;23.818;2024-02-21T06:33:35;94677.19;;;4.77;100.00
40384;BME280;26097;42.366;23.818;2024-02-21T06:36:34;94678.81;;;4.80;100.00
40384;BME280;26097;42.366;23.818;2024-02-21T06:39:34;94681.13;;;4.86;100.00
40384;BME280;26097;42.366;23.818;2024-02-21T06:42:36;94689.66;;;4.88;100.00
40384;BME280;26097;42.366;23.818;2024-02-21T06:45:35;94688.97;;;5.04;100.00
40384;BME280;26097;42.366;23.818;2024-02-21T06:48:35;94693.59;;;5.16;100.00
40384;BME280;26097;42.366;23.818;2024-02-21T06:51:34;94695.13;;;5.20;100.00
40384;BME280;26097;42.366;23.818;2024-02-21T06:54:36;94697.38;;;5.28;100.00
40384;BME280;26097;42.366;23.818;2024-02-21T06:57:35;94704.94;;;5.33;100.00
40384;BME280;26097;42.366;23.818;2024-02-21T07:00:34;94707.84;;;5.44;100.00
40384;BME280;26097;42.366;23.818;2024-02-21T07:03:34;94700.50;;;5.54;100.00
40384;BME280;26097;42.366;23.818;2024-02-21T07:06:33;94700.44;;;5.55;100.00
40384;BME280;26097;42.366;23.818;2024-02-21T07:09:33;94704.34;;;5.64;100.00
40384;BME280;26097;42.366;23.818;2024-02-21T07:12:33;94702.13;;;5.56;100.00
40384;BME280;26097;42.366;23.818;2024-02-21T07:15:34;94711.63;;;5.56;100.00
40384;BME280;26097;42.366;23.818;2024-02-21T07:18:35;94711.34;;;5.62;100.00
40384;BME280;26097;42.366;23.818;2024-02-21T07:21:34;94717.38;;;5.99;100.00
40384;BME280;26097;42.366;23.818;2024-02-21T07:24:37;94710.50;;;6.18;100.00
40384;BME280;26097;42.366;23.818;2024-02-21T07:27:36;94710.81;;;6.29;100.00
40384;BME280;26097;42.366;23.818;2024-02-21T07:30:36;94718.97;;;6.21;100.00
40384;BME280;26097;42.366;23.818;2024-02-21T07:33:35;94712.50;;;6.30;100.00
40384;BME280;26097;42.366;23.818;2024-02-21T07:36:35;94705.94;;;6.58;100.00
40384;BME280;26097;42.366;23.818;2024-02-21T07:39:36;94704.69;;;6.83;100.00
40384;BME280;26097;42.366;23.818;2024-02-21T07:42:38;94704.50;;;6.86;100.00
40384;BME280;26097;42.366;23.818;2024-02-21T07:45:38;94702.41;;;6.77;100.00
40384;BME280;26097;42.366;23.818;2024-02-21T07:48:38;94696.53;;;6.73;100.00
40384;BME280;26097;42.366;23.818;2024-02-21T07:51:37;94703.78;;;6.66;100.00
40384;BME280;26097;42.366;23.818;2024-02-21T07:54:37;94704.41;;;6.71;100.00
40384;BME280;26097;42.366;23.818;2024-02-21T07:57:36;94709.34;;;6.76;100.00
40384;BME280;26097;42.366;23.818;2024-02-21T08:00:36;94710.38;;;6.90;100.00
40384;BME280;26097;42.366;23.818;2024-02-21T08:03:35;94712.19;;;6.71;100.00
40384;BME280;26097;42.366;23.818;2024-02-21T08:06:35;94711.56;;;6.66;100.00
40384;BME280;26097;42.366;23.818;2024-02-21T08:09:34;94714.06;;;6.85;100.00
40384;BME280;26097;42.366;23.818;2024-02-21T08:12:34;94708.47;;;7.27;100.00
40384;BME280;26097;42.366;23.818;2024-02-21T08:15:33;94715.03;;;7.50;100.00
40384;BME280;26097;42.366;23.818;2024-02-21T08:18:33;94707.16;;;7.36;100.00
40384;BME280;26097;42.366;23.818;2024-02-21T08:21:35;94697.28;;;7.42;100.00
40384;BME280;26097;42.366;23.818;2024-02-21T08:24:35;94698.09;;;7.43;100.00
40384;BME280;26097;42.366;23.818;2024-02-21T08:27:34;94706.16;;;7.54;100.00
40384;BME280;26097;42.366;23.818;2024-02-21T08:30:34;94704.59;;;7.68;100.00
40384;BME280;26097;42.366;23.818;2024-02-21T08:33:33;94702.66;;;7.88;100.00
40384;BME280;26097;42.366;23.818;2024-02-21T08:36:33;94699.22;;;7.71;100.00
40384;BME280;26097;42.366;23.818;2024-02-21T08:39:33;94702.13;;;7.49;100.00
40384;BME280;26097;42.366;23.818;2024-02-21T08:42:32;94704.31;;;7.40;100.00
40384;BME280;26097;42.366;23.818;2024-02-21T08:45:32;94702.25;;;7.13;100.00
40384;BME280;26097;42.366;23.818;2024-02-21T08:48:31;94697.22;;;7.10;100.00
40384;BME280;26097;42.366;23.818;2024-02-21T08:51:31;94700.28;;;7.19;100.00
40384;BME280;26097;42.366;23.818;2024-02-21T08:54:30;94695.31;;;7.14;100.00
40384;BME280;26097;42.366;23.818;2024-02-21T08:57:30;94693.72;;;7.11;100.00
40384;BME280;26097;42.366;23.818;2024-02-21T09:00:35;94702.34;;;7.12;100.00
40384;BME280;26097;42.366;23.818;2024-02-21T09:03:34;94702.34;;;7.12;100.00
40384;BME280;26097;42.366;23.818;2024-02-21T09:06:34;94702.09;;;7.17;100.00
40384;BME280;26097;42.366;23.818;2024-02-21T09:09:36;94697.56;;;7.04;100.00
40384;BME280;26097;42.366;23.818;2024-02-21T09:12:37;94691.44;;;6.89;100.00
40384;BME280;26097;42.366;23.818;2024-02-21T09:15:36;94699.75;;;6.78;100.00
40384;BME280;26097;42.366;23.818;2024-02-21T09:18:36;94688.59;;;6.76;100.00
40384;BME280;26097;42.366;23.818;2024-02-21T09:21:38;94688.66;;;6.92;100.00
40384;BME280;26097;42.366;23.818;2024-02-21T09:24:38;94696.25;;;7.13;100.00
40384;BME280;26097;42.366;23.818;2024-02-21T09:27:40;94690.38;;;7.25;99.94
40384;BME280;26097;42.366;23.818;2024-02-21T09:30:39;94689.84;;;7.52;96.98
40384;BME280;26097;42.366;23.818;2024-02-21T09:33:38;94691.44;;;7.71;95.78
40384;BME280;26097;42.366;23.818;2024-02-21T09:36:38;94697.59;;;7.84;89.81
40384;BME280;26097;42.366;23.818;2024-02-21T09:39:39;94699.91;;;8.21;87.97
40384;BME280;26097;42.366;23.818;2024-02-21T09:42:40;94707.88;;;8.49;86.57
40384;BME280;26097;42.366;23.818;2024-02-21T09:45:42;94701.34;;;8.57;85.02
40384;BME280;26097;42.366;23.818;2024-02-21T09:49:30;94695.97;;;8.44;76.84
40384;BME280;26097;42.366;23.818;2024-02-21T09:52:32;94694.56;;;8.55;81.05
40384;BME280;26097;42.366;23.818;2024-02-21T09:55:33;94684.56;;;8.78;81.70
40384;BME280;26097;42.366;23.818;2024-02-21T09:58:34;94675.81;;;8.64;79.35
40384;BME280;26097;42.366;23.818;2024-02-21T10:01:33;94686.06;;;8.67;78.69
40384;BME280;26097;42.366;23.818;2024-02-21T10:04:33;94679.00;;;8.69;77.81
40384;BME280;26097;42.366;23.818;2024-02-21T10:07:33;94670.47;;;8.82;76.51
40384;BME280;26097;42.366;23.818;2024-02-21T10:10:43;94669.09;;;9.05;76.46
40384;BME280;26097;42.366;23.818;2024-02-21T10:13:43;94660.69;;;9.29;78.35
40384;BME280;26097;42.366;23.818;2024-02-21T10:16:46;94663.75;;;9.50;77.12
40384;BME280;26097;42.366;23.818;2024-02-21T10:19:46;94664.06;;;9.73;75.64
40384;BME280;26097;42.366;23.818;2024-02-21T10:22:46;94659.25;;;9.67;69.94
40384;BME280;26097;42.366;23.818;2024-02-21T10:25:46;94663.13;;;9.74;70.10
40384;BME280;26097;42.366;23.818;2024-02-21T10:28:49;94650.31;;;9.71;66.34
40384;BME280;26097;42.366;23.818;2024-02-21T10:31:50;94629.97;;;9.91;68.75
40384;BME280;26097;42.366;23.818;2024-02-21T10:34:49;94638.38;;;9.81;67.65
40384;BME280;26097;42.366;23.818;2024-02-21T10:37:51;94638.03;;;9.73;66.97
40384;BME280;26097;42.366;23.818;2024-02-21T10:40:54;94624.94;;;9.75;68.47
40384;BME280;26097;42.366;23.818;2024-02-21T10:43:59;94629.13;;;9.63;68.83
40384;BME280;26097;42.366;23.818;2024-02-21T10:47:00;94614.00;;;9.82;69.34
40384;BME280;26097;42.366;23.818;2024-02-21T10:50:04;94611.63;;;9.92;69.04
40384;BME280;26097;42.366;23.818;2024-02-21T10:53:19;94613.56;;;10.03;67.20
40384;BME280;26097;42.366;23.818;2024-02-21T10:56:28;94607.31;;;10.19;66.73
40384;BME280;26097;42.366;23.818;2024-02-21T10:59:30;94613.09;;;10.24;65.32
40384;BME280;26097;42.366;23.818;2024-02-21T11:02:32;94611.50;;;10.21;67.05
40384;BME280;26097;42.366;23.818;2024-02-21T11:05:32;94608.94;;;9.94;69.34
40384;BME280;26097;42.366;23.818;2024-02-21T11:08:33;94615.00;;;9.67;69.59
40384;BME280;26097;42.366;23.818;2024-02-21T11:11:38;94617.44;;;9.55;69.33
40384;BME280;26097;42.366;23.818;2024-02-21T11:14:38;94615.19;;;9.36;71.89
40384;BME280;26097;42.366;23.818;2024-02-21T11:17:38;94616.00;;;9.37;73.94
40384;BME280;26097;42.366;23.818;2024-02-21T11:20:38;94614.00;;;9.27;78.23
40384;BME280;26097;42.366;23.818;2024-02-21T11:23:37;94601.75;;;9.15;82.33
40384;BME280;26097;42.366;23.818;2024-02-21T11:26:37;94607.13;;;9.12;84.11
40384;BME280;26097;42.366;23.818;2024-02-21T11:29:47;94605.84;;;8.90;86.74
40384;BME280;26097;42.366;23.818;2024-02-21T11:32:48;94616.16;;;8.63;89.01
40384;BME280;26097;42.366;23.818;2024-02-21T11:35:47;94603.31;;;8.45;89.64
40384;BME280;26097;42.366;23.818;2024-02-21T11:38:46;94608.16;;;8.21;95.73
40384;BME280;26097;42.366;23.818;2024-02-21T11:41:47;94600.94;;;8.11;96.17
40384;BME280;26097;42.366;23.818;2024-02-21T11:44:46;94606.94;;;8.12;97.18
40384;BME280;26097;42.366;23.818;2024-02-21T11:47:46;94607.53;;;8.32;94.60
40384;BME280;26097;42.366;23.818;2024-02-21T11:50:53;94622.00;;;8.52;93.81
40384;BME280;26097;42.366;23.818;2024-02-21T11:53:53;94600.09;;;8.70;91.18
40384;BME280;26097;42.366;23.818;2024-02-21T11:56:53;94605.38;;;8.69;89.29
40384;BME280;26097;42.366;23.818;2024-02-21T11:59:53;94604.66;;;8.81;87.79
40384;BME280;26097;42.366;23.818;2024-02-21T12:02:54;94605.00;;;8.90;85.68
40384;BME280;26097;42.366;23.818;2024-02-21T12:05:54;94589.13;;;8.94;84.31
40384;BME280;26097;42.366;23.818;2024-02-21T12:08:58;94584.66;;;9.11;84.54
40384;BME280;26097;42.366;23.818;2024-02-21T12:12:05;94584.38;;;9.43;83.03
40384;BME280;26097;42.366;23.818;2024-02-21T12:15:05;94578.94;;;9.61;81.43
40384;BME280;26097;42.366;23.818;2024-02-21T12:18:05;94577.06;;;9.63;78.63
40384;BME280;26097;42.366;23.818;2024-02-21T12:21:04;94568.69;;;9.72;76.98
40384;BME280;26097;42.366;23.818;2024-02-21T12:27:22;94565.88;;;9.75;77.26
40384;BME280;26097;42.366;23.818;2024-02-21T12:30:23;94554.94;;;9.70;77.53
40384;BME280;26097;42.366;23.818;2024-02-21T12:33:22;94546.84;;;9.75;77.72
40384;BME280;26097;42.366;23.818;2024-02-21T12:36:21;94551.44;;;9.97;76.33
40384;BME280;26097;42.366;23.818;2024-02-21T12:39:21;94535.44;;;10.29;76.98
40384;BME280;26097;42.366;23.818;2024-02-21T12:42:20;94533.22;;;10.88;75.52
40384;BME280;26097;42.366;23.818;2024-02-21T12:45:20;94524.31;;;11.65;72.54
40384;BME280;26097;42.366;23.818;2024-02-21T12:48:19;94525.03;;;11.67;69.31
40384;BME280;26097;42.366;23.818;2024-02-21T12:51:18;94533.16;;;11.51;70.54
40384;BME280;26097;42.366;23.818;2024-02-21T12:54:20;94531.75;;;10.96;69.10
40384;BME280;26097;42.366;23.818;2024-02-21T12:57:19;94532.78;;;10.43;67.95
40384;BME280;26097;42.366;23.818;2024-02-21T13:00:19;94523.28;;;10.42;68.39
40384;BME280;26097;42.366;23.818;2024-02-21T13:03:20;94529.75;;;10.50;63.35
40384;BME280;26097;42.366;23.818;2024-02-21T13:06:20;94521.88;;;10.76;60.83
40384;BME280;26097;42.366;23.818;2024-02-21T13:09:20;94518.31;;;10.77;58.75
40384;BME280;26097;42.366;23.818;2024-02-21T13:12:19;94508.13;;;10.74;57.29
40384;BME280;26097;42.366;23.818;2024-02-21T13:15:19;94503.16;;;11.32;57.57
40384;BME280;26097;42.366;23.818;2024-02-21T13:18:19;94504.16;;;11.78;54.48
40384;BME280;26097;42.366;23.818;2024-02-21T13:21:18;94493.75;;;11.90;54.93
40384;BME280;26097;42.366;23.818;2024-02-21T13:24:18;94491.69;;;12.06;53.76
40384;BME280;26097;42.366;23.818;2024-02-21T13:27:17;94489.97;;;11.58;52.19
40384;BME280;26097;42.366;23.818;2024-02-21T13:30:17;94475.56;;;11.17;52.75
40384;BME280;26097;42.366;23.818;2024-02-21T13:33:16;94478.72;;;10.71;51.76
40384;BME280;26097;42.366;23.818;2024-02-21T13:36:16;94474.34;;;10.59;54.58
40384;BME280;26097;42.366;23.818;2024-02-21T13:39:16;94467.50;;;10.32;52.42
40384;BME280;26097;42.366;23.818;2024-02-21T13:42:18;94480.84;;;10.14;55.20
40384;BME280;26097;42.366;23.818;2024-02-21T13:45:18;94481.78;;;10.00;55.89
40384;BME280;26097;42.366;23.818;2024-02-21T13:48:18;94485.81;;;9.92;57.70
40384;BME280;26097;42.366;23.818;2024-02-21T13:51:18;94481.53;;;9.65;56.68
40384;BME280;26097;42.366;23.818;2024-02-21T13:54:19;94491.47;;;9.45;57.13
40384;BME280;26097;42.366;23.818;2024-02-21T13:57:18;94490.59;;;9.32;58.86
40384;BME280;26097;42.366;23.818;2024-02-21T14:00:18;94494.34;;;9.27;60.05
40384;BME280;26097;42.366;23.818;2024-02-21T14:03:18;94498.44;;;9.17;59.92
40384;BME280;26097;42.366;23.818;2024-02-21T14:06:19;94489.94;;;9.00;61.91
40384;BME280;26097;42.366;23.818;2024-02-21T14:09:19;94486.63;;;8.84;64.09
40384;BME280;26097;42.366;23.818;2024-02-21T14:12:18;94481.81;;;8.92;64.97
40384;BME280;26097;42.366;23.818;2024-02-21T14:15:19;94482.97;;;9.16;64.40
40384;BME280;26097;42.366;23.818;2024-02-21T14:18:19;94479.66;;;9.26;63.23
40384;BME280;26097;42.366;23.818;2024-02-21T14:21:18;94468.81;;;9.20;63.25
40384;BME280;26097;42.366;23.818;2024-02-21T14:24:18;94476.16;;;9.13;62.63
40384;BME280;26097;42.366;23.818;2024-02-21T14:27:18;94470.63;;;9.05;63.23
40384;BME280;26097;42.366;23.818;2024-02-21T14:30:17;94470.00;;;9.01;63.07
40384;BME280;26097;42.366;23.818;2024-02-21T14:33:16;94468.63;;;8.81;62.75
40384;BME280;26097;42.366;23.818;2024-02-21T14:36:16;94469.38;;;8.83;64.13
40384;BME280;26097;42.366;23.818;2024-02-21T14:39:15;94477.75;;;8.74;64.90
40384;BME280;26097;42.366;23.818;2024-02-21T14:42:15;94472.59;;;8.59;66.15
40384;BME280;26097;42.366;23.818;2024-02-21T14:45:16;94479.09;;;8.52;67.04
40384;BME280;26097;42.366;23.818;2024-02-21T14:48:16;94474.88;;;8.49;67.99
40384;BME280;26097;42.366;23.818;2024-02-21T14:51:16;94475.38;;;8.56;68.08
40384;BME280;26097;42.366;23.818;2024-02-21T14:54:15;94468.88;;;8.49;68.50
40384;BME280;26097;42.366;23.818;2024-02-21T14:57:15;94467.75;;;8.38;69.17
40384;BME280;26097;42.366;23.818;2024-02-21T15:00:14;94469.06;;;8.31;70.03
40384;BME280;26097;42.366;23.818;2024-02-21T15:03:16;94470.19;;;8.27;70.66
40384;BME280;26097;42.366;23.818;2024-02-21T15:06:18;94471.38;;;8.21;71.52
40384;BME280;26097;42.366;23.818;2024-02-21T15:09:17;94472.78;;;8.12;72.06
40384;BME280;26097;42.366;23.818;2024-02-21T15:12:18;94478.50;;;8.03;72.85
40384;BME280;26097;42.366;23.818;2024-02-21T15:15:17;94475.53;;;7.95;73.28
40384;BME280;26097;42.366;23.818;2024-02-21T15:18:17;94476.06;;;7.85;76.94
40384;BME280;26097;42.366;23.818;2024-02-21T15:21:17;94472.34;;;7.75;78.16
40384;BME280;26097;42.366;23.818;2024-02-21T15:24:18;94474.59;;;7.67;82.37
40384;BME280;26097;42.366;23.818;2024-02-21T15:27:17;94471.50;;;7.60;85.22
40384;BME280;26097;42.366;23.818;2024-02-21T15:30:17;94470.84;;;7.56;84.58
40384;BME280;26097;42.366;23.818;2024-02-21T15:33:16;94473.88;;;7.49;85.36
40384;BME280;26097;42.366;23.818;2024-02-21T15:36:15;94473.38;;;7.42;86.51
40384;BME280;26097;42.366;23.818;2024-02-21T15:39:15;94478.00;;;7.37;87.10
40384;BME280;26097;42.366;23.818;2024-02-21T15:42:14;94472.44;;;7.28;93.06
40384;BME280;26097;42.366;23.818;2024-02-21T15:45:14;94469.41;;;7.20;95.56
40384;BME280;26097;42.366;23.818;2024-02-21T15:48:13;94470.59;;;7.14;98.34